Time;durP1;ratioP1;P1;durP2;ratioP2;P2;SDS_P1;SDS_P2;PMS_P1;PMS_P2;Temp;Humidity;BMP_temperature;BMP_pressure;BME280_temperature;BME280_humidity;BME280_pressure;Samples;Min_cycle;Max_cycle;Signal;HPM_P1;HPM_P2
2023/03/04 00:01:47;;;;;;;23.95;11.32;;;1.30;99.90;;;;;;4990727;28;20038;-77
2023/03/04 00:04:13;;;;;;;23.80;9.57;;;1.20;99.90;;;;;;4976860;28;20037;-77
2023/03/04 00:06:39;;;;;;;40.20;12.48;;;1.20;99.90;;;;;;4976834;28;20502;-77
2023/03/04 00:09:05;;;;;;;34.05;10.88;;;1.20;99.90;;;;;;4992589;28;20739;-77
2023/03/04 00:11:31;;;;;;;28.73;8.90;;;1.10;99.90;;;;;;4976197;28;20038;-77
2023/03/04 00:13:57;;;;;;;25.23;10.45;;;1.10;99.90;;;;;;4985001;28;20066;-77
2023/03/04 00:16:27;;;;;;;35.13;13.57;;;1.10;99.90;;;;;;4994709;28;20195;-77
2023/03/04 00:18:57;;;;;;;27.70;11.80;;;1.10;99.90;;;;;;4976989;28;20089;-77
2023/03/04 00:21:23;;;;;;;32.50;9.20;;;1.10;99.90;;;;;;4996476;28;20035;-77
2023/03/04 00:23:49;;;;;;;28.52;12.82;;;1.00;99.90;;;;;;4975661;28;20045;-76
2023/03/04 00:26:16;;;;;;;35.05;12.32;;;1.00;99.90;;;;;;4980651;28;20109;-76
2023/03/04 00:28:42;;;;;;;31.50;11.02;;;1.00;99.90;;;;;;4995907;28;20033;-76
2023/03/04 00:31:09;;;;;;;43.95;11.68;;;0.90;99.90;;;;;;4979367;28;20022;-76
2023/03/04 00:33:35;;;;;;;31.70;12.40;;;0.90;99.90;;;;;;4982930;28;20048;-77
2023/03/04 00:36:02;;;;;;;20.58;10.75;;;0.80;99.90;;;;;;4991238;28;20035;-76
2023/03/04 00:38:28;;;;;;;24.38;11.38;;;0.90;99.90;;;;;;4985980;28;20034;-76
2023/03/04 00:40:54;;;;;;;21.77;10.80;;;0.80;99.90;;;;;;4994849;28;20482;-77
2023/03/04 00:43:20;;;;;;;34.65;14.13;;;0.80;99.90;;;;;;4975199;28;20041;-77
2023/03/04 00:45:46;;;;;;;40.25;11.82;;;0.80;99.90;;;;;;4991164;28;20054;-77
2023/03/04 00:48:11;;;;;;;24.10;11.30;;;0.80;99.90;;;;;;4979371;28;20054;-76
2023/03/04 00:50:37;;;;;;;45.20;10.98;;;0.70;99.90;;;;;;4996984;28;20096;-76
2023/03/04 00:53:04;;;;;;;47.72;10.23;;;0.70;99.90;;;;;;4985795;28;20034;-76
2023/03/04 00:55:30;;;;;;;26.05;9.52;;;0.70;99.90;;;;;;4974779;28;20423;-76
2023/03/04 00:57:56;;;;;;;23.33;11.63;;;0.70;99.90;;;;;;4980664;28;20509;-76
2023/03/04 01:00:22;;;;;;;30.23;10.70;;;0.70;99.90;;;;;;4980560;28;20081;-76
2023/03/04 01:02:48;;;;;;;37.35;11.10;;;0.70;99.90;;;;;;4975761;28;20038;-77
2023/03/04 01:05:14;;;;;;;29.70;12.13;;;0.60;99.90;;;;;;4984813;28;20073;-77
2023/03/04 01:07:40;;;;;;;24.17;10.60;;;0.60;99.90;;;;;;4987252;28;20118;-77
2023/03/04 01:10:09;;;;;;;36.25;10.95;;;0.60;99.90;;;;;;4981811;28;20117;-77
2023/03/04 01:12:34;;;;;;;39.55;13.73;;;0.60;99.90;;;;;;5011006;23;20046;-78
2023/03/04 01:15:00;;;;;;;44.22;13.82;;;0.60;99.90;;;;;;4972549;28;20102;-78
2023/03/04 01:17:26;;;;;;;35.58;12.88;;;0.50;99.90;;;;;;4972559;28;20500;-79
2023/03/04 01:19:52;;;;;;;32.70;12.88;;;0.50;99.90;;;;;;4963201;28;20038;-79
2023/03/04 01:22:17;;;;;;;28.55;11.65;;;0.50;99.90;;;;;;4956726;28;20031;-79
2023/03/04 01:24:44;;;;;;;38.95;11.02;;;0.50;99.90;;;;;;4965727;28;20142;-79
2023/03/04 01:27:11;;;;;;;32.58;13.60;;;0.50;99.90;;;;;;4953590;28;20039;-79
2023/03/04 01:29:36;;;;;;;23.90;9.18;;;0.40;99.90;;;;;;4967298;28;20061;-78
2023/03/04 01:32:03;;;;;;;31.50;10.77;;;0.40;99.90;;;;;;4965372;28;20027;-79
2023/03/04 01:34:28;;;;;;;20.05;12.82;;;0.40;99.90;;;;;;4966445;28;20110;-79
2023/03/04 01:36:54;;;;;;;30.75;10.70;;;0.40;99.90;;;;;;4953824;28;20416;-79
2023/03/04 01:39:20;;;;;;;35.85;10.52;;;0.40;99.90;;;;;;4968440;28;20111;-79
2023/03/04 01:41:46;;;;;;;30.50;12.52;;;0.40;99.90;;;;;;4953212;28;20125;-79
2023/03/04 01:44:13;;;;;;;28.23;9.13;;;0.40;99.90;;;;;;4968254;28;20157;-79
2023/03/04 01:46:51;;;;;;;27.33;8.73;;;0.30;99.90;;;;;;4952346;28;20543;-78
2023/03/04 01:49:18;;;;;;;26.85;9.35;;;0.30;99.90;;;;;;4962793;28;20030;-79
2023/03/04 01:51:53;;;;;;;38.03;13.13;;;0.30;99.90;;;;;;4966861;28;20050;-79
2023/03/04 01:54:21;;;;;;;30.40;12.13;;;0.30;99.90;;;;;;4964519;28;20038;-78
2023/03/04 01:56:49;;;;;;;38.28;12.23;;;0.30;99.90;;;;;;4965525;28;20027;-78
2023/03/04 01:59:21;;;;;;;47.58;13.30;;;0.30;99.90;;;;;;5002658;28;20022;-79
2023/03/04 02:01:59;;;;;;;33.97;12.20;;;0.20;99.90;;;;;;4966065;28;20035;-79
2023/03/04 02:04:33;;;;;;;32.65;12.23;;;0.20;99.90;;;;;;4993423;28;20137;-78
2023/03/04 02:07:00;;;;;;;28.88;9.73;;;0.20;99.90;;;;;;4965557;28;20030;-78
2023/03/04 02:09:27;;;;;;;32.97;10.63;;;0.10;99.90;;;;;;4971827;28;20034;-79
2023/03/04 02:11:53;;;;;;;35.78;12.82;;;0.10;99.90;;;;;;4964730;28;20042;-79
2023/03/04 02:14:20;;;;;;;35.05;12.68;;;0.10;99.90;;;;;;4970876;28;20027;-79
2023/03/04 02:16:48;;;;;;;30.83;8.95;;;0.10;99.90;;;;;;4964374;28;20484;-79
2023/03/04 02:19:44;;;;;;;30.63;12.05;;;0.10;99.90;;;;;;4953901;28;20113;-78
2023/03/04 02:22:10;;;;;;;28.88;10.85;;;0.10;99.90;;;;;;4965167;28;20058;-79
2023/03/04 02:24:45;;;;;;;28.83;12.57;;;0.10;99.90;;;;;;4972051;28;20106;-79
2023/03/04 02:27:11;;;;;;;25.65;11.90;;;0.20;99.90;;;;;;4966996;28;20089;-78
2023/03/04 02:29:36;;;;;;;23.25;10.50;;;0.10;99.90;;;;;;4974322;28;20026;-78
2023/03/04 02:32:03;;;;;;;23.45;10.88;;;0.10;99.90;;;;;;4956964;28;20038;-78
2023/03/04 02:34:34;;;;;;;39.08;13.98;;;0.10;99.90;;;;;;4973757;28;20034;-78
2023/03/04 02:37:02;;;;;;;24.15;8.90;;;0.00;99.90;;;;;;4957339;28;20027;-78
2023/03/04 02:39:38;;;;;;;17.10;8.27;;;-0.10;99.90;;;;;;4968030;28;20053;-79
2023/03/04 02:42:03;;;;;;;27.73;11.43;;;0.00;99.90;;;;;;4972134;28;20026;-78
2023/03/04 02:44:33;;;;;;;27.35;9.50;;;-0.10;99.90;;;;;;4969961;28;20390;-79
2023/03/04 02:47:01;;;;;;;36.55;14.05;;;-0.10;99.90;;;;;;4957282;28;20027;-79
2023/03/04 02:49:31;;;;;;;30.48;10.00;;;-0.10;99.90;;;;;;4967197;28;20038;-79
2023/03/04 02:52:05;;;;;;;38.53;12.00;;;-0.10;99.90;;;;;;4957398;28;20027;-79
2023/03/04 02:54:31;;;;;;;25.38;11.30;;;-0.10;99.90;;;;;;4968732;28;20035;-79
2023/03/04 02:57:02;;;;;;;27.35;11.73;;;-0.10;99.90;;;;;;4975443;28;20406;-79
2023/03/04 02:59:28;;;;;;;28.45;10.55;;;-0.20;99.90;;;;;;4967787;28;20030;-79
2023/03/04 03:01:54;;;;;;;25.23;11.27;;;-0.20;99.90;;;;;;4957681;28;20372;-79
2023/03/04 03:04:21;;;;;;;39.22;10.48;;;-0.30;99.90;;;;;;4967868;28;20062;-79
2023/03/04 03:06:47;;;;;;;22.13;9.52;;;-0.30;99.90;;;;;;4958639;28;20078;-79
2023/03/04 03:09:13;;;;;;;32.28;12.95;;;-0.30;99.90;;;;;;4966545;28;20434;-79
2023/03/04 03:11:39;;;;;;;26.40;10.43;;;-0.40;99.90;;;;;;4960542;28;20480;-78
2023/03/04 03:14:05;;;;;;;27.60;12.30;;;-0.40;99.90;;;;;;4965439;28;20034;-78
2023/03/04 03:16:31;;;;;;;30.15;11.52;;;-0.40;99.90;;;;;;4974874;28;20387;-78
2023/03/04 03:18:56;;;;;;;34.45;13.30;;;-0.40;99.90;;;;;;4968928;28;20097;-79
2023/03/04 03:21:22;;;;;;;31.67;9.50;;;-0.30;99.90;;;;;;4961174;28;20030;-79
2023/03/04 03:23:49;;;;;;;30.13;12.15;;;-0.30;99.90;;;;;;4963523;28;20435;-79
2023/03/04 03:26:16;;;;;;;32.28;11.40;;;-0.40;99.90;;;;;;4963867;28;20046;-79
2023/03/04 03:28:42;;;;;;;24.95;10.60;;;-0.40;99.90;;;;;;4961195;28;20019;-79
2023/03/04 03:31:08;;;;;;;26.42;9.23;;;-0.40;99.90;;;;;;4964291;28;20051;-78
2023/03/04 03:33:34;;;;;;;35.65;11.95;;;-0.40;99.90;;;;;;4961024;28;20038;-78
2023/03/04 03:35:59;;;;;;;29.42;11.90;;;-0.40;99.90;;;;;;4973396;28;20030;-78
2023/03/04 03:38:26;;;;;;;42.38;12.75;;;-0.40;99.90;;;;;;4965859;28;20471;-79
2023/03/04 03:40:52;;;;;;;32.70;13.68;;;-0.40;99.90;;;;;;4966242;28;20058;-78
2023/03/04 03:43:18;;;;;;;23.35;10.10;;;-0.40;99.90;;;;;;4958753;28;20031;-78
2023/03/04 03:45:44;;;;;;;28.27;10.55;;;-0.40;99.90;;;;;;4967355;28;20063;-78
2023/03/04 03:48:10;;;;;;;31.73;11.63;;;-0.40;99.90;;;;;;4957848;28;20073;-78
2023/03/04 03:50:36;;;;;;;34.72;15.73;;;-0.40;99.90;;;;;;4966998;28;20042;-78
2023/03/04 03:53:02;;;;;;;30.40;10.07;;;-0.40;99.90;;;;;;4956719;28;20713;-78
2023/03/04 03:55:28;;;;;;;35.20;12.43;;;-0.30;99.90;;;;;;4969523;28;20023;-78
2023/03/04 03:57:54;;;;;;;33.35;14.32;;;-0.40;99.90;;;;;;4953998;28;20050;-78
2023/03/04 04:00:20;;;;;;;33.42;8.30;;;-0.40;99.90;;;;;;4968948;28;20046;-78
2023/03/04 04:02:46;;;;;;;38.88;10.60;;;-0.50;99.90;;;;;;4956584;28;20038;-78
2023/03/04 04:05:12;;;;;;;20.40;9.50;;;-0.40;99.90;;;;;;4973846;28;20407;-78
2023/03/04 04:07:38;;;;;;;46.03;12.68;;;-0.50;99.90;;;;;;4970034;28;20518;-78
2023/03/04 04:10:05;;;;;;;26.75;10.88;;;-0.50;99.90;;;;;;4963751;28;20169;-78
2023/03/04 04:12:31;;;;;;;26.65;10.60;;;-0.60;99.90;;;;;;4969024;28;20454;-78
2023/03/04 04:14:57;;;;;;;43.53;12.35;;;-0.60;99.90;;;;;;4970914;28;20027;-78
2023/03/04 04:17:23;;;;;;;33.95;14.00;;;-0.70;99.90;;;;;;4972248;28;20380;-78
2023/03/04 04:19:48;;;;;;;30.02;9.45;;;-0.70;99.90;;;;;;4969513;28;20050;-78
2023/03/04 04:22:19;;;;;;;34.83;11.85;;;-0.70;99.90;;;;;;4971825;28;20042;-78
2023/03/04 04:24:45;;;;;;;27.25;11.60;;;-0.80;99.90;;;;;;4972243;28;20399;-78
2023/03/04 04:27:11;;;;;;;38.70;12.52;;;-0.80;99.90;;;;;;4973062;28;20038;-78
2023/03/04 04:29:37;;;;;;;16.38;10.13;;;-0.80;99.90;;;;;;4967840;28;20035;-78
2023/03/04 04:32:04;;;;;;;20.95;10.65;;;-0.90;99.90;;;;;;4955890;28;20039;-78
2023/03/04 04:34:29;;;;;;;36.88;12.13;;;-0.90;99.90;;;;;;4957921;28;20052;-79
2023/03/04 04:36:55;;;;;;;30.95;11.23;;;-0.90;99.90;;;;;;4973864;28;20490;-77
2023/03/04 04:39:21;;;;;;;36.53;10.57;;;-0.90;99.90;;;;;;4966811;28;20034;-77
2023/03/04 04:41:47;;;;;;;24.38;10.75;;;-0.90;99.90;;;;;;4958574;28;20087;-77
2023/03/04 04:44:14;;;;;;;30.70;12.73;;;-0.90;99.90;;;;;;4964374;28;20033;-77
2023/03/04 04:46:40;;;;;;;37.50;11.35;;;-0.90;99.90;;;;;;4971044;28;20113;-77
2023/03/04 04:49:07;;;;;;;42.47;12.85;;;-0.90;99.90;;;;;;4965675;28;20045;-77
2023/03/04 04:51:35;;;;;;;26.48;12.73;;;-1.00;99.90;;;;;;4958926;28;20035;-79
2023/03/04 04:54:02;;;;;;;28.35;12.07;;;-0.90;99.90;;;;;;4954587;28;20040;-78
2023/03/04 04:56:28;;;;;;;32.60;11.38;;;-1.00;99.90;;;;;;4971998;28;20098;-78
2023/03/04 04:58:57;;;;;;;21.88;10.55;;;-1.00;99.90;;;;;;4967122;28;20050;-77
2023/03/04 05:01:23;;;;;;;38.53;12.23;;;-1.00;99.90;;;;;;4959368;28;20038;-77
2023/03/04 05:03:52;;;;;;;28.55;11.45;;;-1.00;99.90;;;;;;4960306;28;20673;-78
2023/03/04 05:06:19;;;;;;;33.97;11.23;;;-0.90;99.90;;;;;;4965099;28;20499;-78
2023/03/04 05:08:45;;;;;;;41.75;12.48;;;-0.90;99.90;;;;;;4965652;28;20450;-78
2023/03/04 05:11:10;;;;;;;25.13;11.27;;;-0.90;99.90;;;;;;4970731;28;20035;-77
2023/03/04 05:13:36;;;;;;;34.30;13.85;;;-0.90;99.90;;;;;;4967105;28;20065;-78
2023/03/04 05:16:02;;;;;;;37.92;12.68;;;-0.80;99.90;;;;;;4971258;28;20443;-77
2023/03/04 05:18:28;;;;;;;23.67;8.70;;;-0.70;99.90;;;;;;4960931;28;20439;-77
2023/03/04 05:21:01;;;;;;;37.90;9.85;;;-0.60;99.90;;;;;;4984004;28;20089;-76
2023/03/04 05:23:31;;;;;;;23.92;10.57;;;-0.50;99.90;;;;;;4966766;28;20089;-78
2023/03/04 05:25:57;;;;;;;27.00;13.60;;;-0.40;99.90;;;;;;4962820;28;20094;-79
2023/03/04 05:28:23;;;;;;;28.45;12.43;;;-0.30;99.90;;;;;;4957814;28;20442;-77
2023/03/04 05:30:49;;;;;;;33.65;12.80;;;-0.30;99.90;;;;;;4964452;28;20111;-77
2023/03/04 05:33:16;;;;;;;40.38;12.50;;;-0.20;99.90;;;;;;4956515;28;20493;-77
2023/03/04 05:35:43;;;;;;;22.73;9.77;;;-0.20;99.90;;;;;;4964352;28;20038;-77
2023/03/04 05:38:13;;;;;;;36.13;11.40;;;-0.20;99.90;;;;;;4954460;28;20027;-77
2023/03/04 05:40:40;;;;;;;24.35;10.90;;;0.00;99.90;;;;;;4964513;28;20027;-77
2023/03/04 05:43:07;;;;;;;38.00;12.15;;;0.00;99.90;;;;;;4955136;28;20131;-77
2023/03/04 05:45:33;;;;;;;38.58;11.65;;;0.10;99.90;;;;;;4965468;28;20031;-77
2023/03/04 05:47:59;;;;;;;39.08;11.80;;;0.10;99.90;;;;;;4954136;28;20038;-78
2023/03/04 05:50:25;;;;;;;36.15;13.85;;;0.20;99.90;;;;;;4970717;28;20035;-77
2023/03/04 05:52:51;;;;;;;37.60;12.13;;;0.20;99.90;;;;;;4965066;28;20043;-78
2023/03/04 05:55:18;;;;;;;38.47;15.07;;;0.20;99.90;;;;;;4964085;28;20023;-78
2023/03/04 05:57:44;;;;;;;21.05;9.52;;;0.30;99.90;;;;;;4967737;28;20023;-77
2023/03/04 06:00:12;;;;;;;30.70;12.88;;;0.10;99.90;;;;;;4970047;28;20027;-78
2023/03/04 06:02:39;;;;;;;38.30;11.90;;;0.20;99.90;;;;;;4966451;28;20101;-79
2023/03/04 06:05:06;;;;;;;28.65;9.23;;;0.30;99.90;;;;;;4968202;28;20023;-79
2023/03/04 06:07:32;;;;;;;39.22;12.88;;;0.30;99.90;;;;;;4972962;28;20386;-77
2023/03/04 06:09:58;;;;;;;23.92;12.32;;;0.20;99.90;;;;;;5002476;28;20023;-78
2023/03/04 06:12:24;;;;;;;42.80;11.77;;;0.20;99.90;;;;;;4970557;28;20046;-77
2023/03/04 06:14:50;;;;;;;35.38;12.10;;;0.20;99.90;;;;;;4968525;28;20037;-79
2023/03/04 06:17:16;;;;;;;23.88;11.45;;;0.30;99.90;;;;;;4971223;28;20034;-76
2023/03/04 06:19:41;;;;;;;28.73;9.73;;;0.40;99.90;;;;;;4970311;28;20039;-79
2023/03/04 06:22:08;;;;;;;39.05;12.50;;;0.40;99.90;;;;;;4953985;28;20027;-75
2023/03/04 06:24:34;;;;;;;40.45;12.52;;;0.40;99.90;;;;;;4958087;28;20371;-75
2023/03/04 06:27:00;;;;;;;37.78;10.60;;;0.40;99.90;;;;;;4971596;28;20042;-80
2023/03/04 06:29:26;;;;;;;23.88;10.82;;;0.40;99.90;;;;;;4966574;28;20026;-78
2023/03/04 06:31:52;;;;;;;44.58;15.75;;;0.40;99.90;;;;;;4955521;28;20036;-73
2023/03/04 06:34:18;;;;;;;35.00;10.60;;;0.40;99.90;;;;;;4964230;28;20039;-77
2023/03/04 06:36:44;;;;;;;27.42;10.63;;;0.50;99.90;;;;;;4971188;28;20097;-71
2023/03/04 06:39:10;;;;;;;35.85;11.43;;;0.50;99.90;;;;;;4966868;28;20031;-79
2023/03/04 06:41:36;;;;;;;31.60;11.93;;;0.50;99.90;;;;;;4972593;28;20027;-78
2023/03/04 06:44:03;;;;;;;28.52;12.38;;;0.30;99.90;;;;;;4962300;28;20058;-77
2023/03/04 06:46:28;;;;;;;47.10;13.20;;;0.30;99.90;;;;;;4958912;28;20031;-78
2023/03/04 06:48:55;;;;;;;36.92;13.20;;;0.40;99.90;;;;;;4961099;28;20107;-78
2023/03/04 06:51:20;;;;;;;28.38;13.10;;;0.50;99.90;;;;;;4959804;28;20085;-78
2023/03/04 06:53:46;;;;;;;30.48;14.18;;;0.40;99.90;;;;;;4959729;28;20450;-78
2023/03/04 06:56:16;;;;;;;32.28;12.07;;;0.40;99.90;;;;;;4960776;28;20039;-78
2023/03/04 06:58:44;;;;;;;37.03;11.50;;;0.40;99.90;;;;;;4958913;28;20049;-79
2023/03/04 07:01:16;;;;;;;33.50;14.38;;;0.30;99.90;;;;;;4965987;28;20038;-78
2023/03/04 07:03:43;;;;;;;36.75;13.05;;;0.10;99.90;;;;;;4958362;28;20023;-75
2023/03/04 07:06:11;;;;;;;29.77;12.02;;;0.10;99.90;;;;;;4971251;28;20034;-77
2023/03/04 07:08:37;;;;;;;26.92;10.23;;;0.20;99.90;;;;;;4966898;28;20030;-77
2023/03/04 07:11:04;;;;;;;30.33;11.98;;;0.20;99.90;;;;;;4969644;28;20102;-77
2023/03/04 07:13:30;;;;;;;26.35;9.93;;;0.20;99.90;;;;;;4988856;23;20038;-74
2023/03/04 07:15:58;;;;;;;36.80;11.70;;;0.20;99.90;;;;;;4983820;28;20093;-73
2023/03/04 07:18:24;;;;;;;43.63;15.48;;;0.40;99.90;;;;;;4972778;28;20089;-74
2023/03/04 07:20:52;;;;;;;34.97;14.38;;;0.30;99.90;;;;;;4974182;28;20110;-73
2023/03/04 07:23:18;;;;;;;25.73;9.32;;;0.30;99.90;;;;;;4972759;28;20034;-74
2023/03/04 07:25:45;;;;;;;34.58;12.15;;;0.30;99.90;;;;;;4973413;28;20027;-74
2023/03/04 07:28:10;;;;;;;24.80;9.48;;;0.40;99.90;;;;;;4973787;28;20075;-74
2023/03/04 07:30:36;;;;;;;29.52;10.02;;;0.30;99.90;;;;;;4974084;28;20084;-74
2023/03/04 07:33:02;;;;;;;42.72;11.13;;;0.50;99.90;;;;;;4968472;28;20039;-74
2023/03/04 07:35:28;;;;;;;29.27;11.60;;;0.40;99.90;;;;;;4974160;28;20027;-74
2023/03/04 07:37:53;;;;;;;35.92;13.88;;;0.40;99.90;;;;;;4973390;28;20502;-75
2023/03/04 07:40:20;;;;;;;39.50;14.45;;;0.60;99.90;;;;;;4974049;28;20038;-75
2023/03/04 07:42:54;;;;;;;29.85;14.02;;;0.60;99.90;;;;;;4972384;28;20031;-75
2023/03/04 07:45:21;;;;;;;34.70;12.40;;;0.60;99.90;;;;;;4966490;28;20037;-74
2023/03/04 07:47:47;;;;;;;27.63;11.68;;;0.70;99.90;;;;;;4956264;28;20027;-74
2023/03/04 07:50:13;;;;;;;42.42;15.50;;;0.70;99.90;;;;;;4973644;28;20483;-75
2023/03/04 07:52:42;;;;;;;32.22;12.48;;;0.80;99.90;;;;;;4973328;28;20049;-74
2023/03/04 07:55:10;;;;;;;39.47;11.07;;;0.90;99.90;;;;;;4972068;28;20026;-74
2023/03/04 07:57:41;;;;;;;33.30;12.60;;;0.80;99.90;;;;;;4972000;28;20031;-70
2023/03/04 08:00:09;;;;;;;29.08;12.00;;;0.80;99.90;;;;;;4972391;28;20042;-75
2023/03/04 08:02:35;;;;;;;33.15;12.85;;;0.80;99.90;;;;;;4955465;28;20402;-75
2023/03/04 08:05:01;;;;;;;34.28;15.85;;;0.90;99.90;;;;;;4973624;28;20107;-74
2023/03/04 08:07:26;;;;;;;42.63;14.68;;;0.90;99.90;;;;;;4966149;28;20027;-70
2023/03/04 08:09:52;;;;;;;43.58;14.68;;;1.00;99.90;;;;;;4968873;28;20023;-70
2023/03/04 08:12:18;;;;;;;43.63;15.93;;;1.00;99.90;;;;;;4982099;28;20479;-68
2023/03/04 08:14:44;;;;;;;39.35;11.57;;;1.00;99.90;;;;;;4973390;28;20034;-68
2023/03/04 08:17:13;;;;;;;34.67;12.18;;;1.10;99.90;;;;;;4973013;28;20118;-69
2023/03/04 08:19:39;;;;;;;37.17;13.15;;;1.10;99.90;;;;;;4972914;28;20038;-70
2023/03/04 08:22:05;;;;;;;45.85;14.07;;;1.20;99.90;;;;;;4972670;28;20041;-70
2023/03/04 08:24:31;;;;;;;36.03;11.30;;;1.20;99.90;;;;;;4971527;28;20018;-69
2023/03/04 08:26:57;;;;;;;31.95;11.75;;;1.30;99.90;;;;;;4968960;28;20031;-69
2023/03/04 08:29:24;;;;;;;41.10;13.15;;;1.20;99.90;;;;;;4971610;28;20111;-68
2023/03/04 08:31:51;;;;;;;47.22;12.25;;;1.20;99.90;;;;;;4967990;28;20431;-67
2023/03/04 08:34:21;;;;;;;57.38;15.20;;;1.20;99.90;;;;;;4963766;28;20101;-68
2023/03/04 08:36:47;;;;;;;44.63;12.70;;;1.30;99.90;;;;;;4952231;28;20031;-66
2023/03/04 08:39:16;;;;;;;30.75;13.07;;;1.40;99.90;;;;;;4972166;28;20039;-69
2023/03/04 08:41:42;;;;;;;26.52;10.77;;;1.40;99.90;;;;;;4971264;28;20035;-68
2023/03/04 08:44:09;;;;;;;31.17;12.98;;;1.40;99.90;;;;;;4971699;28;20077;-70
2023/03/04 08:46:37;;;;;;;34.45;13.43;;;1.40;99.90;;;;;;4972444;28;20043;-69
2023/03/04 08:49:03;;;;;;;29.95;12.38;;;1.40;99.90;;;;;;4972467;28;20027;-69
2023/03/04 08:51:29;;;;;;;46.65;16.55;;;1.50;99.90;;;;;;4972273;28;20061;-68
2023/03/04 08:53:55;;;;;;;41.67;13.40;;;1.50;99.90;;;;;;4971388;28;20026;-68
2023/03/04 08:56:21;;;;;;;45.28;15.27;;;1.50;99.90;;;;;;4972441;28;20105;-68
2023/03/04 08:58:47;;;;;;;39.33;14.80;;;1.60;99.90;;;;;;4972285;28;20054;-69
2023/03/04 09:01:14;;;;;;;49.30;13.48;;;1.60;99.90;;;;;;4971302;28;20395;-69
2023/03/04 09:03:40;;;;;;;41.60;12.50;;;1.70;99.90;;;;;;4966474;28;20513;-70
2023/03/04 09:06:08;;;;;;;37.00;11.40;;;1.80;99.90;;;;;;4969007;28;20121;-70
2023/03/04 09:08:35;;;;;;;40.22;16.13;;;1.80;99.90;;;;;;4968670;28;20042;-69
2023/03/04 09:11:01;;;;;;;41.15;13.98;;;1.80;99.90;;;;;;4970528;28;20049;-69
2023/03/04 09:13:29;;;;;;;40.95;13.65;;;1.90;99.90;;;;;;4970455;28;20027;-69
2023/03/04 09:15:55;;;;;;;45.20;14.32;;;1.90;99.90;;;;;;4946880;28;20030;-68
2023/03/04 09:18:22;;;;;;;42.05;14.02;;;1.90;99.90;;;;;;4970943;28;20364;-70
2023/03/04 09:20:49;;;;;;;37.95;14.60;;;1.80;99.90;;;;;;4970302;28;20117;-70
2023/03/04 09:23:15;;;;;;;41.13;14.65;;;1.90;99.90;;;;;;4963728;28;20209;-70
2023/03/04 09:25:43;;;;;;;43.42;14.60;;;1.90;99.90;;;;;;4969568;28;20023;-69
2023/03/04 09:28:10;;;;;;;36.80;14.50;;;1.90;99.90;;;;;;4954400;28;20046;-71
2023/03/04 09:30:37;;;;;;;42.85;15.73;;;2.00;99.90;;;;;;4965018;28;20027;-71
2023/03/04 09:33:03;;;;;;;46.20;14.32;;;2.10;99.90;;;;;;4945804;28;20058;-72
2023/03/04 09:35:29;;;;;;;36.67;13.00;;;2.10;99.90;;;;;;4958842;28;20061;-72
2023/03/04 09:37:56;;;;;;;48.05;14.27;;;2.30;99.90;;;;;;4966898;28;20141;-70
2023/03/04 09:40:36;;;;;;;36.10;15.18;;;2.20;99.90;;;;;;4971273;28;20081;-71
2023/03/04 09:43:04;;;;;;;48.83;12.30;;;2.20;99.90;;;;;;4969406;28;20229;-70
2023/03/04 09:45:40;;;;;;;35.63;13.60;;;2.30;99.90;;;;;;4970525;28;20042;-69
2023/03/04 09:48:12;;;;;;;34.40;11.77;;;2.30;99.90;;;;;;4969720;28;20057;-69
2023/03/04 09:51:09;;;;;;;39.97;12.25;;;2.30;99.90;;;;;;4953551;28;20495;-69
2023/03/04 09:54:20;;;;;;;43.03;13.23;;;2.40;99.90;;;;;;4921140;28;20069;-71
2023/03/04 09:56:45;;;;;;;34.17;12.27;;;2.50;99.90;;;;;;4954970;28;20118;-71
2023/03/04 09:59:23;;;;;;;38.60;12.63;;;2.50;99.90;;;;;;4971211;28;20162;-70
2023/03/04 10:01:54;;;;;;;32.83;14.13;;;2.70;99.90;;;;;;4965511;28;20369;-71
2023/03/04 10:04:41;;;;;;;27.17;11.05;;;2.80;99.90;;;;;;4962807;28;20043;-71
2023/03/04 10:07:22;;;;;;;43.25;12.73;;;2.80;99.90;;;;;;4967910;28;20687;-72
2023/03/04 10:10:15;;;;;;;46.67;13.77;;;2.90;99.90;;;;;;4969718;28;20030;-69
2023/03/04 10:12:45;;;;;;;38.92;14.88;;;2.80;99.90;;;;;;4953047;28;20030;-70
2023/03/04 10:15:32;;;;;;;46.42;16.10;;;2.80;99.90;;;;;;4971509;28;20058;-70
2023/03/04 10:18:13;;;;;;;41.80;14.95;;;2.90;99.90;;;;;;4970952;28;20030;-69
2023/03/04 10:21:02;;;;;;;47.20;11.90;;;3.00;99.90;;;;;;4970370;28;20393;-70
2023/03/04 10:23:30;;;;;;;35.67;11.85;;;3.10;99.90;;;;;;4979268;28;20046;-70
2023/03/04 10:26:00;;;;;;;45.72;15.45;;;2.90;99.90;;;;;;4969766;28;20085;-70
2023/03/04 10:28:33;;;;;;;26.88;13.20;;;3.00;99.90;;;;;;4969261;28;20030;-70
2023/03/04 10:31:07;;;;;;;29.35;12.38;;;3.00;99.90;;;;;;4969720;28;20078;-70
2023/03/04 10:33:37;;;;;;;37.13;12.20;;;3.10;99.90;;;;;;4970662;28;20411;-69
2023/03/04 10:36:30;;;;;;;31.45;11.25;;;3.10;99.90;;;;;;4969775;28;20037;-69
2023/03/04 10:39:10;;;;;;;36.17;11.65;;;3.20;99.90;;;;;;4970784;28;20468;-69
2023/03/04 10:41:40;;;;;;;30.88;11.85;;;3.30;99.90;;;;;;4970799;28;20042;-69
2023/03/04 10:44:15;;;;;;;35.15;11.25;;;3.50;99.90;;;;;;4970305;28;20034;-70
2023/03/04 10:46:44;;;;;;;32.28;12.77;;;3.40;99.90;;;;;;4969440;28;20035;-70
2023/03/04 10:49:13;;;;;;;29.85;11.73;;;3.70;99.90;;;;;;4973944;28;20110;-69
2023/03/04 10:52:17;;;;;;;31.08;11.75;;;3.60;99.90;;;;;;4973219;28;20030;-69
2023/03/04 10:54:53;;;;;;;35.45;12.45;;;3.80;99.90;;;;;;4969662;28;20027;-70
2023/03/04 10:57:23;;;;;;;26.10;11.30;;;3.90;99.90;;;;;;4973211;28;20042;-69
2023/03/04 10:59:59;;;;;;;37.22;12.82;;;3.80;99.90;;;;;;4973486;28;20107;-70
2023/03/04 11:02:31;;;;;;;26.58;10.15;;;3.80;99.90;;;;;;4973196;28;20042;-70
2023/03/04 11:05:17;;;;;;;28.25;12.50;;;3.80;99.90;;;;;;4973323;28;20027;-69
2023/03/04 11:07:48;;;;;;;19.15;8.02;;;3.90;99.90;;;;;;4974200;28;20059;-70
2023/03/04 11:10:41;;;;;;;25.65;8.77;;;3.90;99.90;;;;;;4974534;28;20041;-69
2023/03/04 11:13:21;;;;;;;25.17;9.93;;;3.90;99.90;;;;;;4981140;28;20066;-70
2023/03/04 11:16:03;;;;;;;34.03;11.00;;;4.10;99.90;;;;;;4973788;28;20114;-69
2023/03/04 11:18:45;;;;;;;39.97;17.67;;;4.40;99.90;;;;;;4972498;28;20070;-69
2023/03/04 11:21:23;;;;;;;29.42;13.13;;;4.40;99.90;;;;;;4973098;28;20027;-69
2023/03/04 11:24:09;;;;;;;33.05;11.15;;;4.40;99.90;;;;;;4971403;28;20061;-69
2023/03/04 11:26:46;;;;;;;25.63;9.65;;;4.40;99.90;;;;;;4955249;28;20034;-69
2023/03/04 11:29:54;;;;;;;19.67;7.95;;;4.60;99.90;;;;;;4973330;28;20372;-70
2023/03/04 11:32:28;;;;;;;23.67;8.15;;;4.40;99.90;;;;;;4971214;28;20109;-70
2023/03/04 11:35:18;;;;;;;26.80;9.85;;;4.30;99.90;;;;;;4973112;28;20037;-70
2023/03/04 11:38:18;;;;;;;20.25;7.82;;;4.60;99.90;;;;;;4971163;28;20031;-70
2023/03/04 11:40:56;;;;;;;28.23;9.82;;;4.20;99.90;;;;;;4968570;28;20029;-69
2023/03/04 11:43:37;;;;;;;23.90;7.95;;;4.30;99.90;;;;;;4972139;28;20034;-70
2023/03/04 11:46:52;;;;;;;21.60;8.93;;;4.40;99.90;;;;;;4958694;28;20034;-70
2023/03/04 11:49:35;;;;;;;26.73;9.07;;;4.50;99.90;;;;;;4965997;28;20037;-70
2023/03/04 11:52:11;;;;;;;21.25;8.02;;;4.80;99.90;;;;;;4971922;28;20062;-70
2023/03/04 11:55:04;;;;;;;30.60;10.15;;;4.70;99.90;;;;;;4972708;28;20111;-70
2023/03/04 11:57:55;;;;;;;19.05;9.25;;;4.40;99.90;;;;;;4970964;28;20118;-70
2023/03/04 12:00:42;;;;;;;20.50;8.30;;;4.50;99.90;;;;;;4965184;28;20368;-69
2023/03/04 12:03:49;;;;;;;21.60;8.15;;;4.70;99.90;;;;;;4973037;28;20302;-70
2023/03/04 12:06:57;;;;;;;16.23;7.07;;;4.80;99.90;;;;;;4973067;28;20031;-70
2023/03/04 12:09:48;;;;;;;24.13;7.80;;;4.70;99.90;;;;;;4966013;28;20030;-70
2023/03/04 12:12:29;;;;;;;19.20;7.68;;;5.00;99.90;;;;;;4972054;28;20030;-70
2023/03/04 12:15:22;;;;;;;;;;;4.90;99.90;;;;;;4972287;28;20031;-71
2023/03/04 12:18:47;;;;;;;23.52;7.70;;;4.90;99.90;;;;;;4969979;28;19929;-69
2023/03/04 12:21:38;;;;;;;23.40;7.15;;;4.90;99.90;;;;;;4966356;28;20031;-69
2023/03/04 12:24:24;;;;;;;18.75;7.95;;;5.00;99.90;;;;;;4970176;28;20380;-69
2023/03/04 12:26:51;;;;;;;25.50;7.38;;;5.30;99.90;;;;;;4967652;28;20558;-69
2023/03/04 12:29:48;;;;;;;23.08;9.40;;;5.00;99.90;;;;;;4972386;28;20113;-69
2023/03/04 12:32:53;;;;;;;18.23;7.47;;;4.80;99.90;;;;;;4970647;28;20739;-68
2023/03/04 12:35:45;;;;;;;18.65;9.25;;;4.80;99.90;;;;;;4965344;28;20035;-68
2023/03/04 12:38:39;;;;;;;18.50;7.63;;;4.70;99.90;;;;;;4972898;28;20041;-70
2023/03/04 12:41:40;;;;;;;17.02;6.40;;;4.80;99.90;;;;;;4970113;28;20035;-69
2023/03/04 12:44:17;;;;;;;15.60;6.18;;;5.00;99.90;;;;;;4963926;28;20491;-72
2023/03/04 12:47:22;;;;;;;18.50;7.68;;;5.30;99.90;;;;;;4971989;28;20561;-73
2023/03/04 12:50:03;;;;;;;14.70;6.03;;;5.40;99.90;;;;;;4968320;28;20505;-72
2023/03/04 12:52:57;;;;;;;14.70;5.10;;;5.60;99.90;;;;;;4958023;28;20039;-73
2023/03/04 12:55:37;;;;;;;17.45;5.82;;;5.80;99.90;;;;;;4965963;28;20073;-73